sensor_id;sensor_type;location;lat;lon;timestamp;P1;durP1;ratioP1;P2;durP2;ratioP2
48052;SDS011;33824;51.600;5.718;2022-09-27T00:00:04;6.20;;;1.00;;
48052;SDS011;33824;51.600;5.718;2022-09-27T00:02:50;4.10;;;0.85;;
48052;SDS011;33824;51.600;5.718;2022-09-27T00:05:16;4.50;;;1.00;;
48052;SDS011;33824;51.600;5.718;2022-09-27T00:07:43;8.20;;;1.67;;
48052;SDS011;33824;51.600;5.718;2022-09-27T00:10:09;4.95;;;0.93;;
48052;SDS011;33824;51.600;5.718;2022-09-27T00:12:36;5.82;;;0.98;;
48052;SDS011;33824;51.600;5.718;2022-09-27T00:15:03;8.75;;;1.95;;
48052;SDS011;33824;51.600;5.718;2022-09-27T00:17:29;3.30;;;1.33;;
48052;SDS011;33824;51.600;5.718;2022-09-27T00:19:54;8.13;;;1.10;;
48052;SDS011;33824;51.600;5.718;2022-09-27T00:22:21;5.05;;;1.67;;
48052;SDS011;33824;51.600;5.718;2022-09-27T00:24:48;8.52;;;1.30;;
48052;SDS011;33824;51.600;5.718;2022-09-27T00:27:14;7.22;;;1.20;;
48052;SDS011;33824;51.600;5.718;2022-09-27T00:29:40;1.60;;;0.90;;
48052;SDS011;33824;51.600;5.718;2022-09-27T00:32:05;5.35;;;1.02;;
48052;SDS011;33824;51.600;5.718;2022-09-27T00:34:31;4.60;;;0.90;;
48052;SDS011;33824;51.600;5.718;2022-09-27T00:36:56;6.10;;;1.15;;
48052;SDS011;33824;51.600;5.718;2022-09-27T00:39:22;2.20;;;0.90;;
48052;SDS011;33824;51.600;5.718;2022-09-27T00:41:47;3.53;;;0.98;;
48052;SDS011;33824;51.600;5.718;2022-09-27T00:49:40;4.83;;;1.00;;
48052;SDS011;33824;51.600;5.718;2022-09-27T00:54:41;5.25;;;1.10;;
48052;SDS011;33824;51.600;5.718;2022-09-27T00:57:11;4.30;;;1.13;;
48052;SDS011;33824;51.600;5.718;2022-09-27T00:59:38;8.95;;;1.30;;
48052;SDS011;33824;51.600;5.718;2022-09-27T01:02:07;10.02;;;1.02;;
48052;SDS011;33824;51.600;5.718;2022-09-27T01:04:33;3.28;;;1.08;;
48052;SDS011;33824;51.600;5.718;2022-09-27T01:07:02;5.00;;;1.00;;
48052;SDS011;33824;51.600;5.718;2022-09-27T01:09:28;8.02;;;2.03;;
48052;SDS011;33824;51.600;5.718;2022-09-27T01:12:42;2.38;;;1.00;;
48052;SDS011;33824;51.600;5.718;2022-09-27T01:15:19;6.72;;;1.15;;
48052;SDS011;33824;51.600;5.718;2022-09-27T01:23:49;5.22;;;1.20;;
48052;SDS011;33824;51.600;5.718;2022-09-27T01:32:03;3.35;;;0.82;;
48052;SDS011;33824;51.600;5.718;2022-09-27T01:42:54;3.28;;;0.50;;
48052;SDS011;33824;51.600;5.718;2022-09-27T01:45:39;1.63;;;0.52;;
48052;SDS011;33824;51.600;5.718;2022-09-27T01:48:15;5.40;;;0.60;;
48052;SDS011;33824;51.600;5.718;2022-09-27T01:50:49;3.83;;;0.57;;
48052;SDS011;33824;51.600;5.718;2022-09-27T01:53:28;3.42;;;0.55;;
48052;SDS011;33824;51.600;5.718;2022-09-27T01:55:57;2.38;;;0.40;;
48052;SDS011;33824;51.600;5.718;2022-09-27T01:58:40;2.45;;;0.50;;
48052;SDS011;33824;51.600;5.718;2022-09-27T02:01:12;5.30;;;1.60;;
48052;SDS011;33824;51.600;5.718;2022-09-27T02:03:41;4.53;;;0.82;;
48052;SDS011;33824;51.600;5.718;2022-09-27T02:06:11;2.38;;;0.68;;
48052;SDS011;33824;51.600;5.718;2022-09-27T02:08:50;2.78;;;0.60;;
48052;SDS011;33824;51.600;5.718;2022-09-27T02:11:22;2.70;;;0.43;;
48052;SDS011;33824;51.600;5.718;2022-09-27T02:13:52;1.30;;;0.45;;
48052;SDS011;33824;51.600;5.718;2022-09-27T02:19:24;1.73;;;0.57;;
48052;SDS011;33824;51.600;5.718;2022-09-27T02:22:10;2.80;;;0.80;;
48052;SDS011;33824;51.600;5.718;2022-09-27T02:24:45;1.35;;;0.40;;
48052;SDS011;33824;51.600;5.718;2022-09-27T02:27:23;3.53;;;0.75;;
48052;SDS011;33824;51.600;5.718;2022-09-27T02:29:59;1.92;;;0.35;;
48052;SDS011;33824;51.600;5.718;2022-09-27T02:32:28;3.22;;;0.65;;
48052;SDS011;33824;51.600;5.718;2022-09-27T02:34:54;1.38;;;0.45;;
48052;SDS011;33824;51.600;5.718;2022-09-27T02:37:25;2.13;;;0.50;;
48052;SDS011;33824;51.600;5.718;2022-09-27T02:39:50;5.15;;;0.77;;
48052;SDS011;33824;51.600;5.718;2022-09-27T02:42:16;1.58;;;0.60;;
48052;SDS011;33824;51.600;5.718;2022-09-27T02:44:41;4.38;;;0.80;;
48052;SDS011;33824;51.600;5.718;2022-09-27T02:49:45;6.45;;;0.80;;
48052;SDS011;33824;51.600;5.718;2022-09-27T02:52:46;2.67;;;0.50;;
48052;SDS011;33824;51.600;5.718;2022-09-27T03:00:29;3.20;;;0.57;;
48052;SDS011;33824;51.600;5.718;2022-09-27T03:03:08;4.22;;;0.70;;
48052;SDS011;33824;51.600;5.718;2022-09-27T03:05:41;3.67;;;0.47;;
48052;SDS011;33824;51.600;5.718;2022-09-27T03:08:09;4.97;;;0.80;;
48052;SDS011;33824;51.600;5.718;2022-09-27T03:10:36;2.75;;;0.55;;
48052;SDS011;33824;51.600;5.718;2022-09-27T03:13:02;4.20;;;1.00;;
48052;SDS011;33824;51.600;5.718;2022-09-27T03:15:29;6.18;;;0.80;;
48052;SDS011;33824;51.600;5.718;2022-09-27T03:17:55;1.50;;;0.70;;
48052;SDS011;33824;51.600;5.718;2022-09-27T03:20:20;6.45;;;0.65;;
48052;SDS011;33824;51.600;5.718;2022-09-27T03:22:46;4.13;;;0.60;;
48052;SDS011;33824;51.600;5.718;2022-09-27T03:25:11;2.63;;;0.73;;
48052;SDS011;33824;51.600;5.718;2022-09-27T03:27:37;1.40;;;0.40;;
48052;SDS011;33824;51.600;5.718;2022-09-27T03:30:02;1.83;;;0.50;;
48052;SDS011;33824;51.600;5.718;2022-09-27T03:32:30;5.90;;;0.73;;
48052;SDS011;33824;51.600;5.718;2022-09-27T03:34:55;3.15;;;1.05;;
48052;SDS011;33824;51.600;5.718;2022-09-27T03:37:21;8.70;;;0.63;;
48052;SDS011;33824;51.600;5.718;2022-09-27T03:39:47;3.65;;;0.60;;
48052;SDS011;33824;51.600;5.718;2022-09-27T03:42:12;7.78;;;0.93;;
48052;SDS011;33824;51.600;5.718;2022-09-27T03:44:38;3.22;;;0.50;;
48052;SDS011;33824;51.600;5.718;2022-09-27T03:47:03;4.38;;;0.82;;
48052;SDS011;33824;51.600;5.718;2022-09-27T03:49:29;4.38;;;0.93;;
48052;SDS011;33824;51.600;5.718;2022-09-27T03:51:54;9.10;;;0.75;;
48052;SDS011;33824;51.600;5.718;2022-09-27T03:54:20;6.90;;;1.08;;
48052;SDS011;33824;51.600;5.718;2022-09-27T03:56:45;8.45;;;0.55;;
48052;SDS011;33824;51.600;5.718;2022-09-27T03:59:11;2.70;;;0.60;;
48052;SDS011;33824;51.600;5.718;2022-09-27T04:01:36;5.00;;;0.90;;
48052;SDS011;33824;51.600;5.718;2022-09-27T04:04:03;1.60;;;0.50;;
48052;SDS011;33824;51.600;5.718;2022-09-27T04:06:29;4.60;;;1.35;;
48052;SDS011;33824;51.600;5.718;2022-09-27T04:08:55;1.67;;;0.55;;
48052;SDS011;33824;51.600;5.718;2022-09-27T04:11:21;4.05;;;0.60;;
48052;SDS011;33824;51.600;5.718;2022-09-27T04:13:49;5.03;;;0.63;;
48052;SDS011;33824;51.600;5.718;2022-09-27T04:16:15;4.95;;;0.77;;
48052;SDS011;33824;51.600;5.718;2022-09-27T04:18:41;8.25;;;0.93;;
48052;SDS011;33824;51.600;5.718;2022-09-27T04:21:07;1.80;;;0.55;;
48052;SDS011;33824;51.600;5.718;2022-09-27T04:23:32;2.85;;;0.60;;
48052;SDS011;33824;51.600;5.718;2022-09-27T04:25:58;2.70;;;0.70;;
48052;SDS011;33824;51.600;5.718;2022-09-27T04:28:23;2.70;;;0.70;;
48052;SDS011;33824;51.600;5.718;2022-09-27T04:30:49;2.38;;;0.60;;
48052;SDS011;33824;51.600;5.718;2022-09-27T04:33:14;4.63;;;0.50;;
48052;SDS011;33824;51.600;5.718;2022-09-27T04:35:42;4.63;;;0.32;;
48052;SDS011;33824;51.600;5.718;2022-09-27T04:38:26;1.13;;;0.50;;
48052;SDS011;33824;51.600;5.718;2022-09-27T04:40:52;2.50;;;0.40;;
48052;SDS011;33824;51.600;5.718;2022-09-27T04:43:17;3.47;;;0.47;;
48052;SDS011;33824;51.600;5.718;2022-09-27T04:45:43;1.85;;;0.30;;
48052;SDS011;33824;51.600;5.718;2022-09-27T04:48:09;0.68;;;0.40;;
48052;SDS011;33824;51.600;5.718;2022-09-27T04:50:34;5.55;;;0.88;;
48052;SDS011;33824;51.600;5.718;2022-09-27T04:53:01;4.35;;;0.50;;
48052;SDS011;33824;51.600;5.718;2022-09-27T04:55:26;2.70;;;0.40;;
48052;SDS011;33824;51.600;5.718;2022-09-27T04:57:52;2.55;;;0.45;;
48052;SDS011;33824;51.600;5.718;2022-09-27T05:00:18;2.85;;;0.70;;
48052;SDS011;33824;51.600;5.718;2022-09-27T05:02:44;8.15;;;1.75;;
48052;SDS011;33824;51.600;5.718;2022-09-27T05:05:10;1.30;;;0.43;;
48052;SDS011;33824;51.600;5.718;2022-09-27T05:07:37;4.05;;;0.35;;
48052;SDS011;33824;51.600;5.718;2022-09-27T05:10:03;2.17;;;0.70;;
48052;SDS011;33824;51.600;5.718;2022-09-27T05:12:29;4.50;;;0.60;;
48052;SDS011;33824;51.600;5.718;2022-09-27T05:14:55;5.80;;;0.60;;
48052;SDS011;33824;51.600;5.718;2022-09-27T05:17:20;5.78;;;0.95;;
48052;SDS011;33824;51.600;5.718;2022-09-27T05:19:47;4.03;;;0.63;;
48052;SDS011;33824;51.600;5.718;2022-09-27T05:22:13;1.73;;;0.47;;
48052;SDS011;33824;51.600;5.718;2022-09-27T05:24:39;3.92;;;0.55;;
48052;SDS011;33824;51.600;5.718;2022-09-27T05:27:04;4.72;;;1.17;;
48052;SDS011;33824;51.600;5.718;2022-09-27T05:29:32;2.85;;;0.40;;
48052;SDS011;33824;51.600;5.718;2022-09-27T05:31:59;3.03;;;0.32;;
48052;SDS011;33824;51.600;5.718;2022-09-27T05:34:25;1.65;;;0.30;;
48052;SDS011;33824;51.600;5.718;2022-09-27T05:36:51;1.70;;;0.45;;
48052;SDS011;33824;51.600;5.718;2022-09-27T05:39:16;3.05;;;0.52;;
48052;SDS011;33824;51.600;5.718;2022-09-27T05:41:42;2.05;;;0.47;;
48052;SDS011;33824;51.600;5.718;2022-09-27T05:44:10;6.78;;;0.68;;
48052;SDS011;33824;51.600;5.718;2022-09-27T05:46:37;1.23;;;0.40;;
48052;SDS011;33824;51.600;5.718;2022-09-27T05:49:04;3.08;;;0.30;;
48052;SDS011;33824;51.600;5.718;2022-09-27T05:51:30;4.60;;;0.60;;
48052;SDS011;33824;51.600;5.718;2022-09-27T05:53:55;1.73;;;0.40;;
48052;SDS011;33824;51.600;5.718;2022-09-27T05:56:21;3.42;;;0.50;;
48052;SDS011;33824;51.600;5.718;2022-09-27T05:58:46;0.98;;;0.32;;
48052;SDS011;33824;51.600;5.718;2022-09-27T06:01:12;1.60;;;0.30;;
48052;SDS011;33824;51.600;5.718;2022-09-27T06:03:38;1.33;;;0.45;;
48052;SDS011;33824;51.600;5.718;2022-09-27T06:06:05;2.42;;;0.30;;
48052;SDS011;33824;51.600;5.718;2022-09-27T06:08:31;2.35;;;0.30;;
48052;SDS011;33824;51.600;5.718;2022-09-27T06:10:59;2.92;;;0.50;;
48052;SDS011;33824;51.600;5.718;2022-09-27T06:13:28;3.70;;;0.30;;
48052;SDS011;33824;51.600;5.718;2022-09-27T06:15:54;2.00;;;0.50;;
48052;SDS011;33824;51.600;5.718;2022-09-27T06:18:19;2.17;;;0.50;;
48052;SDS011;33824;51.600;5.718;2022-09-27T06:20:45;1.38;;;0.47;;
48052;SDS011;33824;51.600;5.718;2022-09-27T06:23:12;2.47;;;0.38;;
48052;SDS011;33824;51.600;5.718;2022-09-27T06:25:38;3.90;;;0.50;;
48052;SDS011;33824;51.600;5.718;2022-09-27T06:28:04;2.70;;;0.40;;
48052;SDS011;33824;51.600;5.718;2022-09-27T06:30:31;2.00;;;0.22;;
48052;SDS011;33824;51.600;5.718;2022-09-27T06:32:57;3.10;;;0.40;;
48052;SDS011;33824;51.600;5.718;2022-09-27T06:35:27;2.45;;;0.25;;
48052;SDS011;33824;51.600;5.718;2022-09-27T06:37:53;1.67;;;0.45;;
48052;SDS011;33824;51.600;5.718;2022-09-27T06:40:20;1.45;;;0.32;;
48052;SDS011;33824;51.600;5.718;2022-09-27T06:42:46;0.60;;;0.40;;
48052;SDS011;33824;51.600;5.718;2022-09-27T06:45:14;1.60;;;0.68;;
48052;SDS011;33824;51.600;5.718;2022-09-27T06:47:39;2.60;;;0.47;;
48052;SDS011;33824;51.600;5.718;2022-09-27T06:50:05;2.58;;;0.65;;
48052;SDS011;33824;51.600;5.718;2022-09-27T06:52:31;1.30;;;0.43;;
48052;SDS011;33824;51.600;5.718;2022-09-27T06:54:57;0.85;;;0.38;;
48052;SDS011;33824;51.600;5.718;2022-09-27T06:57:23;0.50;;;0.47;;
48052;SDS011;33824;51.600;5.718;2022-09-27T07:00:08;3.13;;;0.50;;
48052;SDS011;33824;51.600;5.718;2022-09-27T07:02:51;1.55;;;0.57;;
48052;SDS011;33824;51.600;5.718;2022-09-27T07:05:18;0.95;;;0.45;;
48052;SDS011;33824;51.600;5.718;2022-09-27T07:07:45;1.20;;;0.40;;
48052;SDS011;33824;51.600;5.718;2022-09-27T07:10:12;1.13;;;0.20;;
48052;SDS011;33824;51.600;5.718;2022-09-27T07:12:38;1.27;;;0.40;;
48052;SDS011;33824;51.600;5.718;2022-09-27T07:15:03;1.00;;;0.30;;
48052;SDS011;33824;51.600;5.718;2022-09-27T07:17:30;2.17;;;0.35;;
48052;SDS011;33824;51.600;5.718;2022-09-27T07:19:55;3.17;;;0.75;;
48052;SDS011;33824;51.600;5.718;2022-09-27T07:22:21;1.30;;;0.43;;
48052;SDS011;33824;51.600;5.718;2022-09-27T07:24:47;3.97;;;0.52;;
48052;SDS011;33824;51.600;5.718;2022-09-27T07:27:12;1.75;;;0.50;;
48052;SDS011;33824;51.600;5.718;2022-09-27T07:29:39;1.45;;;0.50;;
48052;SDS011;33824;51.600;5.718;2022-09-27T07:32:05;0.75;;;0.40;;
48052;SDS011;33824;51.600;5.718;2022-09-27T07:34:34;1.90;;;0.80;;
48052;SDS011;33824;51.600;5.718;2022-09-27T07:37:00;2.40;;;0.63;;
48052;SDS011;33824;51.600;5.718;2022-09-27T07:39:27;2.03;;;0.63;;
48052;SDS011;33824;51.600;5.718;2022-09-27T07:41:52;3.05;;;1.20;;
48052;SDS011;33824;51.600;5.718;2022-09-27T07:44:18;3.28;;;0.70;;
48052;SDS011;33824;51.600;5.718;2022-09-27T07:46:44;2.20;;;1.10;;
48052;SDS011;33824;51.600;5.718;2022-09-27T07:49:09;1.67;;;0.70;;
48052;SDS011;33824;51.600;5.718;2022-09-27T07:51:34;3.80;;;0.90;;
48052;SDS011;33824;51.600;5.718;2022-09-27T07:54:00;4.53;;;1.20;;
48052;SDS011;33824;51.600;5.718;2022-09-27T07:56:26;1.52;;;0.77;;
48052;SDS011;33824;51.600;5.718;2022-09-27T07:58:52;1.55;;;0.70;;
48052;SDS011;33824;51.600;5.718;2022-09-27T08:01:17;5.22;;;0.77;;
48052;SDS011;33824;51.600;5.718;2022-09-27T08:03:43;3.35;;;1.10;;
48052;SDS011;33824;51.600;5.718;2022-09-27T08:06:09;0.82;;;0.70;;
48052;SDS011;33824;51.600;5.718;2022-09-27T08:08:35;2.95;;;0.80;;
48052;SDS011;33824;51.600;5.718;2022-09-27T08:11:01;3.63;;;1.35;;
48052;SDS011;33824;51.600;5.718;2022-09-27T08:13:36;2.75;;;1.70;;
48052;SDS011;33824;51.600;5.718;2022-09-27T08:16:04;2.05;;;1.10;;
48052;SDS011;33824;51.600;5.718;2022-09-27T08:18:29;2.80;;;1.20;;
48052;SDS011;33824;51.600;5.718;2022-09-27T08:20:56;3.55;;;1.20;;
48052;SDS011;33824;51.600;5.718;2022-09-27T08:23:22;1.63;;;0.93;;
48052;SDS011;33824;51.600;5.718;2022-09-27T08:25:52;4.40;;;1.20;;
48052;SDS011;33824;51.600;5.718;2022-09-27T08:28:18;8.48;;;1.15;;
48052;SDS011;33824;51.600;5.718;2022-09-27T08:30:43;1.77;;;1.00;;
48052;SDS011;33824;51.600;5.718;2022-09-27T08:33:08;2.45;;;1.08;;
48052;SDS011;33824;51.600;5.718;2022-09-27T08:35:34;2.05;;;1.08;;
48052;SDS011;33824;51.600;5.718;2022-09-27T08:38:01;6.07;;;1.17;;
48052;SDS011;33824;51.600;5.718;2022-09-27T08:40:45;1.92;;;1.02;;
48052;SDS011;33824;51.600;5.718;2022-09-27T08:43:43;3.22;;;1.75;;
48052;SDS011;33824;51.600;5.718;2022-09-27T08:49:05;4.63;;;1.73;;
48052;SDS011;33824;51.600;5.718;2022-09-27T08:51:41;4.00;;;1.52;;
48052;SDS011;33824;51.600;5.718;2022-09-27T08:54:12;6.75;;;1.40;;
48052;SDS011;33824;51.600;5.718;2022-09-27T08:56:44;4.07;;;1.40;;
48052;SDS011;33824;51.600;5.718;2022-09-27T08:59:18;2.67;;;1.40;;
48052;SDS011;33824;51.600;5.718;2022-09-27T09:01:47;3.40;;;1.52;;
48052;SDS011;33824;51.600;5.718;2022-09-27T09:04:21;4.35;;;1.98;;
48052;SDS011;33824;51.600;5.718;2022-09-27T09:06:59;3.28;;;2.13;;
48052;SDS011;33824;51.600;5.718;2022-09-27T09:12:43;2.65;;;2.00;;
48052;SDS011;33824;51.600;5.718;2022-09-27T09:15:20;4.35;;;2.33;;
48052;SDS011;33824;51.600;5.718;2022-09-27T09:17:51;9.15;;;2.72;;
48052;SDS011;33824;51.600;5.718;2022-09-27T09:20:36;3.53;;;2.22;;
48052;SDS011;33824;51.600;5.718;2022-09-27T09:23:17;4.25;;;2.50;;
48052;SDS011;33824;51.600;5.718;2022-09-27T09:26:25;6.18;;;2.65;;
48052;SDS011;33824;51.600;5.718;2022-09-27T09:28:57;7.10;;;2.85;;
48052;SDS011;33824;51.600;5.718;2022-09-27T09:44:48;8.25;;;3.60;;
48052;SDS011;33824;51.600;5.718;2022-09-27T09:47:24;6.60;;;3.33;;
48052;SDS011;33824;51.600;5.718;2022-09-27T09:49:59;10.40;;;3.03;;
48052;SDS011;33824;51.600;5.718;2022-09-27T09:52:38;6.00;;;3.40;;
48052;SDS011;33824;51.600;5.718;2022-09-27T09:55:18;7.60;;;3.22;;
48052;SDS011;33824;51.600;5.718;2022-09-27T10:00:49;6.30;;;3.03;;
48052;SDS011;33824;51.600;5.718;2022-09-27T10:03:16;5.00;;;3.13;;
48052;SDS011;33824;51.600;5.718;2022-09-27T10:05:42;7.25;;;2.97;;
48052;SDS011;33824;51.600;5.718;2022-09-27T10:08:15;6.35;;;4.00;;
48052;SDS011;33824;51.600;5.718;2022-09-27T10:10:43;6.15;;;3.50;;
48052;SDS011;33824;51.600;5.718;2022-09-27T10:13:09;8.25;;;3.75;;
48052;SDS011;33824;51.600;5.718;2022-09-27T10:15:40;5.57;;;3.35;;
48052;SDS011;33824;51.600;5.718;2022-09-27T10:18:08;5.40;;;3.10;;
48052;SDS011;33824;51.600;5.718;2022-09-27T10:20:47;5.55;;;2.80;;
48052;SDS011;33824;51.600;5.718;2022-09-27T10:23:19;4.13;;;1.70;;
48052;SDS011;33824;51.600;5.718;2022-09-27T10:25:55;3.90;;;1.23;;
48052;SDS011;33824;51.600;5.718;2022-09-27T10:28:31;0.70;;;0.70;;
48052;SDS011;33824;51.600;5.718;2022-09-27T10:31:01;2.20;;;0.70;;
48052;SDS011;33824;51.600;5.718;2022-09-27T10:33:29;1.30;;;0.60;;
48052;SDS011;33824;51.600;5.718;2022-09-27T10:35:56;1.77;;;0.60;;
48052;SDS011;33824;51.600;5.718;2022-09-27T10:38:26;1.80;;;0.50;;
48052;SDS011;33824;51.600;5.718;2022-09-27T10:41:42;1.13;;;0.82;;
48052;SDS011;33824;51.600;5.718;2022-09-27T10:43:55;5.00;;;0.75;;
48052;SDS011;33824;51.600;5.718;2022-09-27T10:46:43;0.70;;;0.70;;
48052;SDS011;33824;51.600;5.718;2022-09-27T10:49:16;2.40;;;1.20;;
48052;SDS011;33824;51.600;5.718;2022-09-27T10:51:43;3.42;;;1.10;;
48052;SDS011;33824;51.600;5.718;2022-09-27T10:54:24;4.32;;;1.33;;
48052;SDS011;33824;51.600;5.718;2022-09-27T10:56:59;5.47;;;1.83;;
48052;SDS011;33824;51.600;5.718;2022-09-27T10:59:29;3.13;;;1.80;;
48052;SDS011;33824;51.600;5.718;2022-09-27T11:01:59;2.40;;;1.20;;
48052;SDS011;33824;51.600;5.718;2022-09-27T11:09:47;3.28;;;1.25;;
48052;SDS011;33824;51.600;5.718;2022-09-27T11:12:15;2.65;;;0.75;;
48052;SDS011;33824;51.600;5.718;2022-09-27T11:14:48;4.18;;;1.00;;
48052;SDS011;33824;51.600;5.718;2022-09-27T11:17:23;1.00;;;0.40;;
48052;SDS011;33824;51.600;5.718;2022-09-27T11:19:57;1.48;;;0.60;;
48052;SDS011;33824;51.600;5.718;2022-09-27T11:28:16;1.35;;;0.50;;
48052;SDS011;33824;51.600;5.718;2022-09-27T11:36:11;0.75;;;0.35;;
48052;SDS011;33824;51.600;5.718;2022-09-27T11:39:08;3.40;;;0.50;;
48052;SDS011;33824;51.600;5.718;2022-09-27T11:41:55;0.63;;;0.30;;
48052;SDS011;33824;51.600;5.718;2022-09-27T11:44:37;1.83;;;0.50;;
48052;SDS011;33824;51.600;5.718;2022-09-27T11:53:08;0.28;;;0.20;;
48052;SDS011;33824;51.600;5.718;2022-09-27T12:10:14;0.68;;;0.60;;
48052;SDS011;33824;51.600;5.718;2022-09-27T12:12:43;0.38;;;0.30;;
48052;SDS011;33824;51.600;5.718;2022-09-27T12:15:18;1.10;;;0.40;;
48052;SDS011;33824;51.600;5.718;2022-09-27T12:17:48;0.73;;;0.20;;
48052;SDS011;33824;51.600;5.718;2022-09-27T12:20:30;3.55;;;0.50;;
48052;SDS011;33824;51.600;5.718;2022-09-27T12:23:05;2.38;;;0.65;;
48052;SDS011;33824;51.600;5.718;2022-09-27T12:25:36;2.40;;;0.50;;
48052;SDS011;33824;51.600;5.718;2022-09-27T12:28:09;2.25;;;0.40;;
48052;SDS011;33824;51.600;5.718;2022-09-27T12:30:43;0.22;;;0.20;;
48052;SDS011;33824;51.600;5.718;2022-09-27T12:36:08;3.35;;;0.47;;
48052;SDS011;33824;51.600;5.718;2022-09-27T12:38:46;0.30;;;0.30;;
48052;SDS011;33824;51.600;5.718;2022-09-27T12:41:23;4.20;;;0.40;;
48052;SDS011;33824;51.600;5.718;2022-09-27T12:43:49;0.50;;;0.38;;
48052;SDS011;33824;51.600;5.718;2022-09-27T12:51:50;0.30;;;0.20;;
48052;SDS011;33824;51.600;5.718;2022-09-27T12:57:01;0.47;;;0.20;;
48052;SDS011;33824;51.600;5.718;2022-09-27T13:05:27;0.47;;;0.30;;
48052;SDS011;33824;51.600;5.718;2022-09-27T13:10:56;1.27;;;0.30;;
48052;SDS011;33824;51.600;5.718;2022-09-27T13:13:25;0.40;;;0.20;;
48052;SDS011;33824;51.600;5.718;2022-09-27T13:15:57;0.20;;;0.20;;
48052;SDS011;33824;51.600;5.718;2022-09-27T13:20:55;2.05;;;0.30;;
48052;SDS011;33824;51.600;5.718;2022-09-27T13:25:48;1.08;;;0.50;;
48052;SDS011;33824;51.600;5.718;2022-09-27T13:31:17;1.88;;;0.30;;
48052;SDS011;33824;51.600;5.718;2022-09-27T13:34:01;0.68;;;0.28;;
48052;SDS011;33824;51.600;5.718;2022-09-27T13:36:29;0.50;;;0.20;;
48052;SDS011;33824;51.600;5.718;2022-09-27T13:42:14;2.10;;;1.00;;
48052;SDS011;33824;51.600;5.718;2022-09-27T13:49:56;1.17;;;0.30;;
48052;SDS011;33824;51.600;5.718;2022-09-27T13:52:32;1.48;;;0.57;;
48052;SDS011;33824;51.600;5.718;2022-09-27T13:55:01;2.35;;;0.40;;
48052;SDS011;33824;51.600;5.718;2022-09-27T13:57:56;1.85;;;0.30;;
48052;SDS011;33824;51.600;5.718;2022-09-27T14:00:29;1.13;;;0.35;;
48052;SDS011;33824;51.600;5.718;2022-09-27T14:03:05;2.40;;;0.60;;
48052;SDS011;33824;51.600;5.718;2022-09-27T14:05:40;0.80;;;0.30;;
48052;SDS011;33824;51.600;5.718;2022-09-27T14:08:23;1.48;;;0.30;;
48052;SDS011;33824;51.600;5.718;2022-09-27T14:10:54;4.28;;;0.65;;
48052;SDS011;33824;51.600;5.718;2022-09-27T14:13:21;0.40;;;0.30;;
48052;SDS011;33824;51.600;5.718;2022-09-27T14:15:49;1.55;;;0.50;;
48052;SDS011;33824;51.600;5.718;2022-09-27T14:18:16;3.97;;;0.63;;
48052;SDS011;33824;51.600;5.718;2022-09-27T14:20:43;2.03;;;0.63;;
48052;SDS011;33824;51.600;5.718;2022-09-27T14:23:19;2.75;;;0.50;;
48052;SDS011;33824;51.600;5.718;2022-09-27T14:25:47;1.10;;;0.40;;
48052;SDS011;33824;51.600;5.718;2022-09-27T14:28:22;3.55;;;0.73;;
48052;SDS011;33824;51.600;5.718;2022-09-27T14:31:05;6.07;;;0.80;;
48052;SDS011;33824;51.600;5.718;2022-09-27T14:33:31;1.33;;;0.70;;
48052;SDS011;33824;51.600;5.718;2022-09-27T14:35:58;1.13;;;0.75;;
48052;SDS011;33824;51.600;5.718;2022-09-27T14:38:43;1.58;;;0.47;;
48052;SDS011;33824;51.600;5.718;2022-09-27T14:41:10;2.47;;;0.47;;
48052;SDS011;33824;51.600;5.718;2022-09-27T14:43:35;2.70;;;0.50;;
48052;SDS011;33824;51.600;5.718;2022-09-27T14:48:48;2.03;;;0.80;;
48052;SDS011;33824;51.600;5.718;2022-09-27T14:53:47;3.55;;;0.73;;
48052;SDS011;33824;51.600;5.718;2022-09-27T14:56:16;9.05;;;1.08;;
48052;SDS011;33824;51.600;5.718;2022-09-27T14:58:47;6.28;;;0.90;;
48052;SDS011;33824;51.600;5.718;2022-09-27T15:01:18;5.57;;;0.80;;
48052;SDS011;33824;51.600;5.718;2022-09-27T15:03:44;3.25;;;0.70;;
48052;SDS011;33824;51.600;5.718;2022-09-27T15:06:13;3.42;;;0.95;;
48052;SDS011;33824;51.600;5.718;2022-09-27T15:08:40;2.38;;;0.68;;
48052;SDS011;33824;51.600;5.718;2022-09-27T15:11:08;5.15;;;0.40;;
48052;SDS011;33824;51.600;5.718;2022-09-27T15:13:34;2.45;;;0.60;;
48052;SDS011;33824;51.600;5.718;2022-09-27T15:16:09;5.65;;;0.65;;
48052;SDS011;33824;51.600;5.718;2022-09-27T15:18:45;3.63;;;0.90;;
48052;SDS011;33824;51.600;5.718;2022-09-27T15:21:29;1.88;;;0.50;;
48052;SDS011;33824;51.600;5.718;2022-09-27T15:23:58;1.90;;;0.65;;
48052;SDS011;33824;51.600;5.718;2022-09-27T15:26:33;2.28;;;0.93;;
48052;SDS011;33824;51.600;5.718;2022-09-27T15:29:02;2.88;;;0.60;;
48052;SDS011;33824;51.600;5.718;2022-09-27T15:31:29;1.40;;;0.60;;
48052;SDS011;33824;51.600;5.718;2022-09-27T15:33:56;4.07;;;0.75;;
48052;SDS011;33824;51.600;5.718;2022-09-27T15:36:48;3.20;;;0.98;;
48052;SDS011;33824;51.600;5.718;2022-09-27T15:39:37;3.97;;;0.97;;
48052;SDS011;33824;51.600;5.718;2022-09-27T15:50:30;6.03;;;1.20;;
48052;SDS011;33824;51.600;5.718;2022-09-27T15:52:51;2.50;;;0.70;;
48052;SDS011;33824;51.600;5.718;2022-09-27T15:55:23;2.83;;;0.85;;
48052;SDS011;33824;51.600;5.718;2022-09-27T15:57:54;3.35;;;1.15;;
48052;SDS011;33824;51.600;5.718;2022-09-27T16:00:24;3.05;;;1.02;;
48052;SDS011;33824;51.600;5.718;2022-09-27T16:02:50;9.60;;;0.93;;
48052;SDS011;33824;51.600;5.718;2022-09-27T16:05:16;3.17;;;1.02;;
48052;SDS011;33824;51.600;5.718;2022-09-27T16:07:41;3.35;;;1.08;;
48052;SDS011;33824;51.600;5.718;2022-09-27T16:10:13;4.28;;;0.70;;
48052;SDS011;33824;51.600;5.718;2022-09-27T16:12:41;4.35;;;1.00;;
48052;SDS011;33824;51.600;5.718;2022-09-27T16:15:09;2.80;;;1.00;;
48052;SDS011;33824;51.600;5.718;2022-09-27T16:17:39;2.95;;;1.10;;
48052;SDS011;33824;51.600;5.718;2022-09-27T16:20:09;2.95;;;0.80;;
48052;SDS011;33824;51.600;5.718;2022-09-27T16:22:42;2.03;;;0.75;;
48052;SDS011;33824;51.600;5.718;2022-09-27T16:25:07;3.05;;;0.80;;
48052;SDS011;33824;51.600;5.718;2022-09-27T16:27:35;4.05;;;0.68;;
48052;SDS011;33824;51.600;5.718;2022-09-27T16:30:01;1.35;;;0.57;;
48052;SDS011;33824;51.600;5.718;2022-09-27T16:32:27;2.47;;;0.50;;
48052;SDS011;33824;51.600;5.718;2022-09-27T16:34:52;1.98;;;0.75;;
48052;SDS011;33824;51.600;5.718;2022-09-27T16:37:18;2.70;;;0.70;;
48052;SDS011;33824;51.600;5.718;2022-09-27T16:39:44;1.45;;;0.50;;
48052;SDS011;33824;51.600;5.718;2022-09-27T16:42:09;3.40;;;1.02;;
48052;SDS011;33824;51.600;5.718;2022-09-27T16:44:35;2.95;;;1.38;;
48052;SDS011;33824;51.600;5.718;2022-09-27T16:47:01;3.83;;;0.93;;
48052;SDS011;33824;51.600;5.718;2022-09-27T16:49:27;5.20;;;1.42;;
48052;SDS011;33824;51.600;5.718;2022-09-27T16:52:12;7.28;;;1.45;;
48052;SDS011;33824;51.600;5.718;2022-09-27T16:54:37;6.07;;;1.02;;
48052;SDS011;33824;51.600;5.718;2022-09-27T16:57:02;2.22;;;1.13;;
48052;SDS011;33824;51.600;5.718;2022-09-27T16:59:28;3.05;;;1.08;;
48052;SDS011;33824;51.600;5.718;2022-09-27T17:01:54;1.33;;;0.80;;
48052;SDS011;33824;51.600;5.718;2022-09-27T17:04:21;3.28;;;1.27;;
48052;SDS011;33824;51.600;5.718;2022-09-27T17:06:48;9.50;;;1.02;;
48052;SDS011;33824;51.600;5.718;2022-09-27T17:09:13;4.32;;;1.02;;
48052;SDS011;33824;51.600;5.718;2022-09-27T17:11:38;3.80;;;0.70;;
48052;SDS011;33824;51.600;5.718;2022-09-27T17:14:04;5.28;;;0.90;;
48052;SDS011;33824;51.600;5.718;2022-09-27T17:16:29;3.13;;;0.80;;
48052;SDS011;33824;51.600;5.718;2022-09-27T17:18:55;2.35;;;0.82;;
48052;SDS011;33824;51.600;5.718;2022-09-27T17:21:20;0.90;;;0.60;;
48052;SDS011;33824;51.600;5.718;2022-09-27T17:23:46;2.80;;;0.85;;
48052;SDS011;33824;51.600;5.718;2022-09-27T17:26:19;2.42;;;0.93;;
48052;SDS011;33824;51.600;5.718;2022-09-27T17:28:48;7.00;;;1.05;;
48052;SDS011;33824;51.600;5.718;2022-09-27T17:31:15;2.47;;;1.10;;